Polymnia — 9HA2620 — position and weather

sailwx.info

Track history (hours):
 
Tides and Currents Weather Stations Pressure Air Temp Water Temp Dewpoint Dewpoint Depression Visibility Wind Speed Wind Dir Waves Ship Positions

Polymnia

Last reported at 2018-May-27 17:30 UTC. Time now 2018-Jun-23 13:56 UTC.
Position N 38°20' W 030°30'.
Warning: this ship's position is 26 days out of date.

Length 291 m; draft 8.8 m.

Type: Ship. MMSI: 215041000.

Date/timePositionNaut miles runAvg speedWind from/ knotsBaromVisibWave heightAir tempDewpointWater temp
2018-May-27 17:30N 38°20' W 030°30'611.5
2018-May-27 17:00N 38°19' W 030°23'511.0
2018-May-27 16:30N 38°17' W 030°17'510.7
2018-May-27 16:00N 38°15' W 030°10'510.8
2018-May-27 15:30N 38°13' W 030°04'611.1
2018-May-27 15:00N 38°11' W 029°57'611.2
2018-May-27 14:31N 38°09' W 029°51'611.1
2018-May-27 14:00N 38°07' W 029°44'611.4
2018-May-27 13:30N 38°05' W 029°37'611.6
2018-May-27 13:00N 38°02' W 029°31'611.5
2018-May-27 12:30N 37°60' W 029°24'611.6
2018-May-27 12:00N 37°58' W 029°17'611.2
2018-May-27 11:30N 37°56' W 029°10'611.6
2018-May-27 11:00N 37°54' W 029°03'611.9
2018-May-27 10:30N 37°52' W 028°56'611.7
2018-May-27 10:00N 37°50' W 028°49'611.8
2018-May-27 09:30N 37°48' W 028°42'611.4
2018-May-27 09:00N 37°46' W 028°36'611.5
2018-May-27 08:30N 37°44' W 028°29'611.8
2018-May-27 08:00N 37°42' W 028°22'612.0
2018-May-27 07:30N 37°39' W 028°15'611.9
2018-May-27 07:00N 37°37' W 028°08'611.7
2018-May-27 06:30N 37°35' W 028°01'611.7
2018-May-27 06:00N 37°33' W 027°54'611.9
2018-May-27 05:30N 37°31' W 027°47'612.2
2018-May-27 05:00N 37°29' W 027°40'611.8
2018-May-27 04:30N 37°27' W 027°33'611.2
2018-May-27 04:00N 37°25' W 027°27'1311.5
2018-May-27 02:51N 37°20' W 027°11'611.8
2018-May-27 02:23N 37°18' W 027°04'411.5
2018-May-27 02:01N 37°16' W 026°59'611.3
2018-May-27 01:30N 37°14' W 026°53'611.6
2018-May-27 01:00N 37°12' W 026°46'611.8
2018-May-27 00:31N 37°10' W 026°39'611.7
2018-May-27 00:00N 37°08' W 026°32'611.4
2018-May-26 23:30N 37°06' W 026°26'611.6
2018-May-26 23:01N 37°04' W 026°19'611.9
2018-May-26 22:30N 37°01' W 026°12'611.8
2018-May-26 22:00N 36°59' W 026°05'611.5
2018-May-26 21:31N 36°57' W 025°58'611.6
2018-May-26 21:00N 36°55' W 025°51'611.7
2018-May-26 20:30N 36°53' W 025°45'611.7
2018-May-26 20:01N 36°51' W 025°38'611.6
2018-May-26 19:30N 36°49' W 025°31'611.6
2018-May-26 19:00N 36°47' W 025°24'611.7
2018-May-26 18:30N 36°45' W 025°18'611.7
2018-May-26 18:01N 36°43' W 025°11'611.7
2018-May-26 17:30N 36°43' W 025°03'612.0
2018-May-26 17:00N 36°42' W 024°56'612.0
2018-May-26 16:30N 36°42' W 024°48'612.3
2018-May-26 16:00N 36°42' W 024°41'612.2
2018-May-26 15:30N 36°42' W 024°33'612.3
2018-May-26 15:00N 36°42' W 024°26'612.3
2018-May-26 14:30N 36°41' W 024°18'612.3
2018-May-26 14:00N 36°41' W 024°10'612.2
2018-May-26 13:30N 36°41' W 024°03'612.1
2018-May-26 13:00N 36°41' W 023°55'612.1
2018-May-26 12:30N 36°40' W 023°47'612.0
2018-May-26 12:00N 36°40' W 023°40'611.8
2018-May-26 11:30N 36°40' W 023°33'611.6
2018-May-26 10:59N 36°40' W 023°25'511.5
2018-May-26 10:30N 36°39' W 023°18'611.7
2018-May-26 10:00N 36°39' W 023°11'611.8
2018-May-26 09:30N 36°39' W 023°04'611.9
2018-May-26 09:00N 36°39' W 022°56'714.0
2018-May-26 08:30N 36°38' W 022°47'714.9
2018-May-26 08:01N 36°38' W 022°38'714.3
2018-May-26 07:30N 36°38' W 022°29'611.9
2018-May-26 07:00N 36°38' W 022°22'611.9
2018-May-26 06:30N 36°38' W 022°15'1211.7
2018-May-26 05:29N 36°37' W 021°60'611.6
2018-May-26 05:00N 36°37' W 021°53'611.6
2018-May-26 04:30N 36°37' W 021°46'611.7
2018-May-26 03:59N 36°37' W 021°38'611.8
2018-May-26 03:30N 36°36' W 021°31'612.0
2018-May-26 03:00N 36°36' W 021°23'1511.7
2018-May-26 01:42N 36°36' W 021°05'1311.6
2018-May-26 00:37N 36°35' W 020°49'311.8
2018-May-26 00:21N 36°35' W 020°45'711.5
2018-May-25 23:45N 36°35' W 020°36'311.5
2018-May-25 23:27N 36°35' W 020°32'  
2018-May-23 18:55N 36°18' W 008°01'611.2
2018-May-23 18:23N 36°19' W 007°53'511.2
2018-May-23 17:57N 36°19' W 007°47'104 2.1
2018-May-21 16:46N 35°58' W 005°41'2 8.5
2018-May-21 16:29N 35°58' W 005°38'4 8.1
2018-May-21 16:00N 35°59' W 005°34'4 8.2
2018-May-21 15:30N 35°60' W 005°29'4 7.9
2018-May-21 15:00N 36°02' W 005°24'4 8.8
2018-May-21 14:30N 36°06' W 005°23'2 1.9
2018-May-21 13:42N 36°07' W 005°22'0 0.0
2018-May-21 13:27N 36°07' W 005°22'0 0.0
2018-May-21 12:15N 36°07' W 005°22'0 0.1
2018-May-21 12:00N 36°07' W 005°22'0 0.1
2018-May-21 11:30N 36°07' W 005°22'0 0.1
2018-May-21 10:57N 36°07' W 005°22'0 0.0
2018-May-21 10:30N 36°07' W 005°22'0 0.1
2018-May-21 10:00N 36°07' W 005°22'0 0.1
2018-May-21 09:30N 36°07' W 005°22'0 0.1
2018-May-21 08:57N 36°07' W 005°22'0 0.2
2018-May-21 08:30N 36°07' W 005°22'0 0.0
2018-May-21 07:51N 36°07' W 005°22'0 0.1
2018-May-21 07:30N 36°07' W 005°22'0 0.1
2018-May-21 06:57N 36°07' W 005°22'0 0.1
2018-May-21 06:27N 36°08' W 005°22'0 0.1
2018-May-21 06:00N 36°08' W 005°22'0 0.2
2018-May-21 05:30N 36°07' W 005°22'0 0.1
2018-May-21 05:00N 36°07' W 005°22'0 0.2
2018-May-21 04:30N 36°08' W 005°22'0 0.2
2018-May-21 04:00N 36°08' W 005°22'0 0.2
2018-May-21 03:30N 36°08' W 005°22'0 0.4
2018-May-21 03:00N 36°07' W 005°22'2 4.7
2018-May-21 02:30N 36°05' W 005°22'3 5.8
2018-May-21 02:00N 36°06' W 005°18'2 4.8
2018-May-21 01:30N 36°07' W 005°16'0 0.7
2018-May-21 01:00N 36°08' W 005°16'0 0.4
2018-May-21 00:30N 36°08' W 005°15'0 0.7
2018-May-21 00:00N 36°08' W 005°15'0 0.8
2018-May-20 23:30N 36°08' W 005°15'1 2.8
2018-May-20 23:00N 36°07' W 005°14'2 4.8
2018-May-20 22:30N 36°05' W 005°12'0 0.5
2018-May-20 22:00N 36°05' W 005°12'1 1.1
2018-May-20 21:30N 36°05' W 005°12'1 1.2
2018-May-20 21:00N 36°05' W 005°13'1 1.1
2018-May-20 20:30N 36°06' W 005°14'0 0.6
2018-May-20 20:00N 36°06' W 005°14'0 0.8
2018-May-20 19:30N 36°05' W 005°14'1 2.5
2018-May-20 19:00N 36°05' W 005°13'2 3.9
2018-May-20 18:30N 36°05' W 005°10'2 1.5
2018-May-20 17:26N 36°05' W 005°12'0 1.0
2018-May-20 17:00N 36°05' W 005°13'0 0.5
2018-May-20 16:30N 36°06' W 005°13'0 0.7
2018-May-20 16:00N 36°06' W 005°13'0 0.4
2018-May-20 15:29N 36°06' W 005°13'1 1.0
2018-May-20 15:00N 36°05' W 005°13'3 6.8
2018-May-20 14:30N 36°06' W 005°09'610.5
2018-May-20 13:59N 36°07' W 005°02'510.6
2018-May-20 13:29N 36°08' W 004°56'611.0
2018-May-20 12:58N 36°08' W 004°49'510.7
2018-May-20 12:30N 36°09' W 004°43'190 9.4
2018-May-19 16:24N 37°16' W 001°01'710.8
2018-May-19 15:44N 37°20' W 000°54'210.6
2018-May-19 15:30N 37°22' W 000°52'510.4
2018-May-19 15:00N 37°26' W 000°48'5 9.8
2018-May-19 14:30N 37°29' W 000°42'5 9.8
2018-May-19 14:01N 37°32' W 000°38'5 9.3
2018-May-19 13:30N 37°35' W 000°33'5 9.2
2018-May-19 13:00N 37°39' W 000°30'5 9.3
2018-May-19 12:30N 37°43' W 000°28'510.9
2018-May-19 12:00N 37°47' W 000°23'714.3
2018-May-19 11:30N 37°53' W 000°18'612.3
2018-May-19 11:00N 37°58' W 000°14'5 9.9
2018-May-19 10:30N 38°02' W 000°11'22410.3
2018-May-18 12:43N 40°58' E 002°50'3010.3
2018-May-18 09:47N 41°20' E 003°17'410.3
2018-May-18 09:24N 41°23' E 003°21'12011.0
2018-May-17 22:32N 43°01' E 004°52'011.3
2018-May-17 22:30N 43°01' E 004°53'611.0
2018-May-17 22:00N 43°06' E 004°57'711.0
2018-May-17 21:22N 43°12' E 005°01'411.6
2018-May-17 21:01N 43°16' E 004°60'510.9
2018-May-17 20:30N 43°22' E 004°58'4 9.0
2018-May-17 20:01N 43°24' E 004°53'1 2.7
2018-May-17 19:29N 43°26' E 004°52'0 0.0
2018-May-17 18:59N 43°26' E 004°52'0 0.0
2018-May-17 18:29N 43°26' E 004°52'0 0.0
2018-May-17 17:59N 43°26' E 004°52'  
Track history (hours):
 
Tides and Currents Weather Stations Pressure Air Temp Water Temp Dewpoint Dewpoint Depression Visibility Wind Speed Wind Dir Waves Ship Positions

Polymnia

Last reported at 2018-May-27 17:30 UTC. Time now 2018-Jun-23 13:56 UTC.
Position N 38°20' W 030°30'.
Warning: this ship's position is 26 days out of date.

Length 291 m; draft 8.8 m.

Type: Ship. MMSI: 215041000.

Date/timePositionNaut miles runAvg speedWind from/ knotsBaromVisibWave heightAir tempDewpointWater temp
2018-May-27 17:30N 38°20' W 030°30'611.5
2018-May-27 17:00N 38°19' W 030°23'511.0
2018-May-27 16:30N 38°17' W 030°17'510.7
2018-May-27 16:00N 38°15' W 030°10'510.8
2018-May-27 15:30N 38°13' W 030°04'611.1
2018-May-27 15:00N 38°11' W 029°57'611.2
2018-May-27 14:31N 38°09' W 029°51'611.1
2018-May-27 14:00N 38°07' W 029°44'611.4
2018-May-27 13:30N 38°05' W 029°37'611.6
2018-May-27 13:00N 38°02' W 029°31'611.5
2018-May-27 12:30N 37°60' W 029°24'611.6
2018-May-27 12:00N 37°58' W 029°17'611.2
2018-May-27 11:30N 37°56' W 029°10'611.6
2018-May-27 11:00N 37°54' W 029°03'611.9
2018-May-27 10:30N 37°52' W 028°56'611.7
2018-May-27 10:00N 37°50' W 028°49'611.8
2018-May-27 09:30N 37°48' W 028°42'611.4
2018-May-27 09:00N 37°46' W 028°36'611.5
2018-May-27 08:30N 37°44' W 028°29'611.8
2018-May-27 08:00N 37°42' W 028°22'612.0
2018-May-27 07:30N 37°39' W 028°15'611.9
2018-May-27 07:00N 37°37' W 028°08'611.7
2018-May-27 06:30N 37°35' W 028°01'611.7
2018-May-27 06:00N 37°33' W 027°54'611.9
2018-May-27 05:30N 37°31' W 027°47'612.2
2018-May-27 05:00N 37°29' W 027°40'611.8
2018-May-27 04:30N 37°27' W 027°33'611.2
2018-May-27 04:00N 37°25' W 027°27'1311.5
2018-May-27 02:51N 37°20' W 027°11'611.8
2018-May-27 02:23N 37°18' W 027°04'411.5
2018-May-27 02:01N 37°16' W 026°59'611.3
2018-May-27 01:30N 37°14' W 026°53'611.6
2018-May-27 01:00N 37°12' W 026°46'611.8
2018-May-27 00:31N 37°10' W 026°39'611.7
2018-May-27 00:00N 37°08' W 026°32'611.4
2018-May-26 23:30N 37°06' W 026°26'611.6
2018-May-26 23:01N 37°04' W 026°19'611.9
2018-May-26 22:30N 37°01' W 026°12'611.8
2018-May-26 22:00N 36°59' W 026°05'611.5
2018-May-26 21:31N 36°57' W 025°58'611.6
2018-May-26 21:00N 36°55' W 025°51'611.7
2018-May-26 20:30N 36°53' W 025°45'611.7
2018-May-26 20:01N 36°51' W 025°38'611.6
2018-May-26 19:30N 36°49' W 025°31'611.6
2018-May-26 19:00N 36°47' W 025°24'611.7
2018-May-26 18:30N 36°45' W 025°18'611.7
2018-May-26 18:01N 36°43' W 025°11'611.7
2018-May-26 17:30N 36°43' W 025°03'612.0
2018-May-26 17:00N 36°42' W 024°56'612.0
2018-May-26 16:30N 36°42' W 024°48'612.3
2018-May-26 16:00N 36°42' W 024°41'612.2
2018-May-26 15:30N 36°42' W 024°33'612.3
2018-May-26 15:00N 36°42' W 024°26'612.3
2018-May-26 14:30N 36°41' W 024°18'612.3
2018-May-26 14:00N 36°41' W 024°10'612.2
2018-May-26 13:30N 36°41' W 024°03'612.1
2018-May-26 13:00N 36°41' W 023°55'612.1
2018-May-26 12:30N 36°40' W 023°47'612.0
2018-May-26 12:00N 36°40' W 023°40'611.8
2018-May-26 11:30N 36°40' W 023°33'611.6
2018-May-26 10:59N 36°40' W 023°25'511.5
2018-May-26 10:30N 36°39' W 023°18'611.7
2018-May-26 10:00N 36°39' W 023°11'611.8
2018-May-26 09:30N 36°39' W 023°04'611.9
2018-May-26 09:00N 36°39' W 022°56'714.0
2018-May-26 08:30N 36°38' W 022°47'714.9
2018-May-26 08:01N 36°38' W 022°38'714.3
2018-May-26 07:30N 36°38' W 022°29'611.9
2018-May-26 07:00N 36°38' W 022°22'611.9
2018-May-26 06:30N 36°38' W 022°15'1211.7
2018-May-26 05:29N 36°37' W 021°60'611.6
2018-May-26 05:00N 36°37' W 021°53'611.6
2018-May-26 04:30N 36°37' W 021°46'611.7
2018-May-26 03:59N 36°37' W 021°38'611.8
2018-May-26 03:30N 36°36' W 021°31'612.0
2018-May-26 03:00N 36°36' W 021°23'1511.7
2018-May-26 01:42N 36°36' W 021°05'1311.6
2018-May-26 00:37N 36°35' W 020°49'311.8
2018-May-26 00:21N 36°35' W 020°45'711.5
2018-May-25 23:45N 36°35' W 020°36'311.5
2018-May-25 23:27N 36°35' W 020°32'  
2018-May-23 18:55N 36°18' W 008°01'611.2
2018-May-23 18:23N 36°19' W 007°53'511.2
2018-May-23 17:57N 36°19' W 007°47'104 2.1
2018-May-21 16:46N 35°58' W 005°41'2 8.5
2018-May-21 16:29N 35°58' W 005°38'4 8.1
2018-May-21 16:00N 35°59' W 005°34'4 8.2
2018-May-21 15:30N 35°60' W 005°29'4 7.9
2018-May-21 15:00N 36°02' W 005°24'4 8.8
2018-May-21 14:30N 36°06' W 005°23'2 1.9
2018-May-21 13:42N 36°07' W 005°22'0 0.0
2018-May-21 13:27N 36°07' W 005°22'0 0.0
2018-May-21 12:15N 36°07' W 005°22'0 0.1
2018-May-21 12:00N 36°07' W 005°22'0 0.1
2018-May-21 11:30N 36°07' W 005°22'0 0.1
2018-May-21 10:57N 36°07' W 005°22'0 0.0
2018-May-21 10:30N 36°07' W 005°22'0 0.1
2018-May-21 10:00N 36°07' W 005°22'0 0.1
2018-May-21 09:30N 36°07' W 005°22'0 0.1
2018-May-21 08:57N 36°07' W 005°22'0 0.2
2018-May-21 08:30N 36°07' W 005°22'0 0.0
2018-May-21 07:51N 36°07' W 005°22'0 0.1
2018-May-21 07:30N 36°07' W 005°22'0 0.1
2018-May-21 06:57N 36°07' W 005°22'0 0.1
2018-May-21 06:27N 36°08' W 005°22'0 0.1
2018-May-21 06:00N 36°08' W 005°22'0 0.2
2018-May-21 05:30N 36°07' W 005°22'0 0.1
2018-May-21 05:00N 36°07' W 005°22'0 0.2
2018-May-21 04:30N 36°08' W 005°22'0 0.2
2018-May-21 04:00N 36°08' W 005°22'0 0.2
2018-May-21 03:30N 36°08' W 005°22'0 0.4
2018-May-21 03:00N 36°07' W 005°22'2 4.7
2018-May-21 02:30N 36°05' W 005°22'3 5.8
2018-May-21 02:00N 36°06' W 005°18'2 4.8
2018-May-21 01:30N 36°07' W 005°16'0 0.7
2018-May-21 01:00N 36°08' W 005°16'0 0.4
2018-May-21 00:30N 36°08' W 005°15'0 0.7
2018-May-21 00:00N 36°08' W 005°15'0 0.8
2018-May-20 23:30N 36°08' W 005°15'1 2.8
2018-May-20 23:00N 36°07' W 005°14'2 4.8
2018-May-20 22:30N 36°05' W 005°12'0 0.5
2018-May-20 22:00N 36°05' W 005°12'1 1.1
2018-May-20 21:30N 36°05' W 005°12'1 1.2
2018-May-20 21:00N 36°05' W 005°13'1 1.1
2018-May-20 20:30N 36°06' W 005°14'0 0.6
2018-May-20 20:00N 36°06' W 005°14'0 0.8
2018-May-20 19:30N 36°05' W 005°14'1 2.5
2018-May-20 19:00N 36°05' W 005°13'2 3.9
2018-May-20 18:30N 36°05' W 005°10'2 1.5
2018-May-20 17:26N 36°05' W 005°12'0 1.0
2018-May-20 17:00N 36°05' W 005°13'0 0.5
2018-May-20 16:30N 36°06' W 005°13'0 0.7
2018-May-20 16:00N 36°06' W 005°13'0 0.4
2018-May-20 15:29N 36°06' W 005°13'1 1.0
2018-May-20 15:00N 36°05' W 005°13'3 6.8
2018-May-20 14:30N 36°06' W 005°09'610.5
2018-May-20 13:59N 36°07' W 005°02'510.6
2018-May-20 13:29N 36°08' W 004°56'611.0
2018-May-20 12:58N 36°08' W 004°49'510.7
2018-May-20 12:30N 36°09' W 004°43'190 9.4
2018-May-19 16:24N 37°16' W 001°01'710.8
2018-May-19 15:44N 37°20' W 000°54'210.6
2018-May-19 15:30N 37°22' W 000°52'510.4
2018-May-19 15:00N 37°26' W 000°48'5 9.8
2018-May-19 14:30N 37°29' W 000°42'5 9.8
2018-May-19 14:01N 37°32' W 000°38'5 9.3
2018-May-19 13:30N 37°35' W 000°33'5 9.2
2018-May-19 13:00N 37°39' W 000°30'5 9.3
2018-May-19 12:30N 37°43' W 000°28'510.9
2018-May-19 12:00N 37°47' W 000°23'714.3
2018-May-19 11:30N 37°53' W 000°18'612.3
2018-May-19 11:00N 37°58' W 000°14'5 9.9
2018-May-19 10:30N 38°02' W 000°11'22410.3
2018-May-18 12:43N 40°58' E 002°50'3010.3
2018-May-18 09:47N 41°20' E 003°17'410.3
2018-May-18 09:24N 41°23' E 003°21'12011.0
2018-May-17 22:32N 43°01' E 004°52'011.3
2018-May-17 22:30N 43°01' E 004°53'611.0
2018-May-17 22:00N 43°06' E 004°57'711.0
2018-May-17 21:22N 43°12' E 005°01'411.6
2018-May-17 21:01N 43°16' E 004°60'510.9
2018-May-17 20:30N 43°22' E 004°58'4 9.0
2018-May-17 20:01N 43°24' E 004°53'1 2.7
2018-May-17 19:29N 43°26' E 004°52'0 0.0
2018-May-17 18:59N 43°26' E 004°52'0 0.0
2018-May-17 18:29N 43°26' E 004°52'0 0.0
2018-May-17 17:59N 43°26' E 004°52'  

Dump ship's entire track history